Perry, Louisiana
Current Conditions -  °F | °C
As of 8:55 PM on Thursday 18 Dec 2014 (Local Time) from KIYA Reporting Station
Overcast Overcast  
Wind Chill: 60°   Ceiling: 1300
Heat Index: 60°   Visibility: 10mi
Dew Point: 55°   Wind: 5mph
Humidity: 83%   Direction: 50°NE
Pressure: 30.11"   Gusts: NA
Location:  29.95°N, 92.16°W
Report Text: KIYA 190255Z AUTO 05004KT 10SM OVC013 15/13 A3011 RMK AO2 T01530125 TSNO
Loading
Personal Weather Stations






























Interactive Weather Map New forecast layout! Learn more

10-Day Weather Forecast

Advertisements
Track Severe Weather on mobile